Time;durP1;ratioP1;P1;durP2;ratioP2;P2;SDS_P1;SDS_P2;PMS_P1;PMS_P2;Temp;Humidity;BMP_temperature;BMP_pressure;BME280_temperature;BME280_humidity;BME280_pressure;Samples;Min_cycle;Max_cycle;Signal;HPM_P1;HPM_P2
2021/11/06 00:00:10;;;;;;;;;;;;;;;;;;1009275;29;1457;-20
2021/11/06 00:00:43;;;;;;;;;;;;;;;;;;1005638;29;1131;-19
2021/11/06 00:01:14;;;;;;;;;;;;;;;;;;1006555;29;817;-19
2021/11/06 00:01:44;;;;;;;;;;;;;;;;;;1013440;29;1528;-19
2021/11/06 00:02:15;;;;;;;;;;;;;;;;;;1013938;29;1145;-19
2021/11/06 00:02:45;;;;;;;;;;;;;;;;;;1013674;29;1548;-19
2021/11/06 00:03:16;;;;;;;;;;;;;;;;;;1013793;29;1032;-19
2021/11/06 00:03:46;;;;;;;;;;;;;;;;;;1013609;29;951;-19
2021/11/06 00:04:17;;;;;;;;;;;;;;;;;;1013281;29;1187;-19
2021/11/06 00:04:48;;;;;;;;;;;;;;;;;;1013312;29;879;-19
2021/11/06 00:05:19;;;;;;;;;;;;;;;;;;1009358;29;1223;-19
2021/11/06 00:05:49;;;;;;;;;;;;;;;;;;1005184;29;1422;-19
2021/11/06 00:06:20;;;;;;;;;;;;;;;;;;1001787;29;1021;-19
2021/11/06 00:06:51;;;;;;;;;;;;;;;;;;997849;29;1312;-19
2021/11/06 00:07:21;;;;;;;;;;;;;;;;;;1001697;29;1032;-18
2021/11/06 00:07:52;;;;;;;;;;;;;;;;;;1005864;29;1079;-19
2021/11/06 00:08:23;;;;;;;;;;;;;;;;;;1005236;29;1412;-19
2021/11/06 00:08:53;;;;;;;;;;;;;;;;;;1005173;29;1115;-20
2021/11/06 00:09:24;;;;;;;;;;;;;;;;;;1001824;29;1416;-18
2021/11/06 00:09:55;;;;;;;;;;;;;;;;;;1001702;29;1113;-19
2021/11/06 00:10:25;;;;;;;;;;;;;;;;;;1002193;29;1051;-19
2021/11/06 00:10:56;;;;;;;;;;;;;;;;;;1013446;29;1437;-19
2021/11/06 00:11:26;;;;;;;;;;;;;;;;;;1013501;29;1075;-19
2021/11/06 00:11:57;;;;;;;;;;;;;;;;;;1009816;29;1834;-19
2021/11/06 00:12:28;;;;;;;;;;;;;;;;;;1005172;29;1375;-19
2021/11/06 00:12:59;;;;;;;;;;;;;;;;;;1005491;29;1099;-20
2021/11/06 00:13:29;;;;;;;;;;;;;;;;;;1001580;29;1428;-19
2021/11/06 00:14:00;;;;;;;;;;;;;;;;;;1001750;29;1094;-19
2021/11/06 00:14:31;;;;;;;;;;;;;;;;;;1013548;29;1085;-19
2021/11/06 00:15:03;;;;;;;;;;;;;;;;;;1004929;29;1590;-20
2021/11/06 00:15:35;;;;;;;;;;;;;;;;;;1009341;29;1080;-19
2021/11/06 00:16:06;;;;;;;;;;;;;;;;;;1000642;29;1306;-18
2021/11/06 00:16:36;;;;;;;;;;;;;;;;;;1006570;29;1914;-19
2021/11/06 00:17:06;;;;;;;;;;;;;;;;;;1017114;29;993;-19
2021/11/06 00:17:38;;;;;;;;;;;;;;;;;;1013153;29;1575;-19
2021/11/06 00:18:08;;;;;;;;;;;;;;;;;;1021050;29;1100;-20
2021/11/06 00:18:39;;;;;;;;;;;;;;;;;;1020954;29;1456;-20
2021/11/06 00:19:09;;;;;;;;;;;;;;;;;;1020984;29;1065;-19
2021/11/06 00:19:39;;;;;;;;;;;;;;;;;;1021243;29;1068;-20
2021/11/06 00:20:11;;;;;;;;;;;;;;;;;;1021217;29;1054;-19
2021/11/06 00:20:41;;;;;;;;;;;;;;;;;;1014046;29;948;-20
2021/11/06 00:21:12;;;;;;;;;;;;;;;;;;1014133;29;947;-19
2021/11/06 00:21:42;;;;;;;;;;;;;;;;;;1014143;29;1120;-19
2021/11/06 00:22:13;;;;;;;;;;;;;;;;;;1017274;29;1084;-19
2021/11/06 00:22:43;;;;;;;;;;;;;;;;;;1009379;29;959;-19
2021/11/06 00:23:15;;;;;;;;;;;;;;;;;;1009463;29;1104;-19
2021/11/06 00:23:45;;;;;;;;;;;;;;;;;;1001722;29;1169;-19
2021/11/06 00:24:16;;;;;;;;;;;;;;;;;;998147;29;870;-18
2021/11/06 00:24:46;;;;;;;;;;;;;;;;;;1005475;29;948;-19
2021/11/06 00:25:17;;;;;;;;;;;;;;;;;;1005742;29;974;-18
2021/11/06 00:25:47;;;;;;;;;;;;;;;;;;1014019;29;893;-19
2021/11/06 00:26:17;;;;;;;;;;;;;;;;;;1014135;29;966;-19
2021/11/06 00:26:51;;;;;;;;;;;;;;;;;;1009142;29;1357;-19
2021/11/06 00:27:22;;;;;;;;;;;;;;;;;;1009322;29;1040;-17
2021/11/06 00:27:52;;;;;;;;;;;;;;;;;;1009149;29;1325;-20
2021/11/06 00:28:23;;;;;;;;;;;;;;;;;;1009306;29;1071;-19
2021/11/06 00:28:53;;;;;;;;;;;;;;;;;;1009520;29;1313;-20
2021/11/06 00:29:23;;;;;;;;;;;;;;;;;;1014008;29;1129;-19
2021/11/06 00:29:54;;;;;;;;;;;;;;;;;;1017103;29;972;-19
2021/11/06 00:30:24;;;;;;;;;;;;;;;;;;1017296;29;1445;-19
2021/11/06 00:30:55;;;;;;;;;;;;;;;;;;1016793;29;1651;-20
2021/11/06 00:31:26;;;;;;;;;;;;;;;;;;1017190;29;1123;-19
2021/11/06 00:31:56;;;;;;;;;;;;;;;;;;1013122;29;1530;-19
2021/11/06 00:32:27;;;;;;;;;;;;;;;;;;1013147;29;1322;-19
2021/11/06 00:32:57;;;;;;;;;;;;;;;;;;1013365;29;844;-19
2021/11/06 00:33:28;;;;;;;;;;;;;;;;;;1017111;29;1014;-19
2021/11/06 00:33:59;;;;;;;;;;;;;;;;;;1013174;29;1312;-21
2021/11/06 00:34:30;;;;;;;;;;;;;;;;;;1013292;29;1096;-21
2021/11/06 00:35:00;;;;;;;;;;;;;;;;;;1013098;29;1147;-19
2021/11/06 00:35:30;;;;;;;;;;;;;;;;;;1017458;29;1053;-18
2021/11/06 00:36:01;;;;;;;;;;;;;;;;;;1020497;29;1419;-19
2021/11/06 00:36:32;;;;;;;;;;;;;;;;;;1017336;29;1906;-17
2021/11/06 00:37:02;;;;;;;;;;;;;;;;;;1021028;29;1064;-19
2021/11/06 00:37:32;;;;;;;;;;;;;;;;;;1016799;29;1505;-19
2021/11/06 00:38:03;;;;;;;;;;;;;;;;;;1017161;29;1168;-19
2021/11/06 00:38:33;;;;;;;;;;;;;;;;;;1017065;29;1391;-19
2021/11/06 00:39:05;;;;;;;;;;;;;;;;;;1013744;29;999;-20
2021/11/06 00:39:35;;;;;;;;;;;;;;;;;;1013928;29;844;-19
2021/11/06 00:40:06;;;;;;;;;;;;;;;;;;1013629;29;1524;-20
2021/11/06 00:40:37;;;;;;;;;;;;;;;;;;1013779;29;1328;-19
2021/11/06 00:41:08;;;;;;;;;;;;;;;;;;1013031;29;1051;-19
2021/11/06 00:41:38;;;;;;;;;;;;;;;;;;1013208;29;1049;-19
2021/11/06 00:42:08;;;;;;;;;;;;;;;;;;1013308;29;1155;-19
2021/11/06 00:42:39;;;;;;;;;;;;;;;;;;1013367;29;999;-19
2021/11/06 00:43:09;;;;;;;;;;;;;;;;;;1014006;29;1396;-19
2021/11/06 00:43:40;;;;;;;;;;;;;;;;;;1014047;29;927;-20
2021/11/06 00:44:10;;;;;;;;;;;;;;;;;;1013343;29;1519;-19
2021/11/06 00:44:40;;;;;;;;;;;;;;;;;;1013831;29;1063;-19
2021/11/06 00:45:12;;;;;;;;;;;;;;;;;;1020704;29;1428;-18
2021/11/06 00:45:42;;;;;;;;;;;;;;;;;;1020885;29;1305;-18
2021/11/06 00:46:12;;;;;;;;;;;;;;;;;;1021373;29;1090;-19
2021/11/06 00:46:43;;;;;;;;;;;;;;;;;;1020504;29;1676;-20
2021/11/06 00:47:13;;;;;;;;;;;;;;;;;;1020948;29;978;-19
2021/11/06 00:47:45;;;;;;;;;;;;;;;;;;1017156;29;1407;-19
2021/11/06 00:48:16;;;;;;;;;;;;;;;;;;1016970;29;952;-19
2021/11/06 00:48:46;;;;;;;;;;;;;;;;;;1016632;29;1080;-19
2021/11/06 00:49:17;;;;;;;;;;;;;;;;;;1009211;29;1212;-19
2021/11/06 00:49:47;;;;;;;;;;;;;;;;;;1009389;29;979;-19
2021/11/06 00:50:18;;;;;;;;;;;;;;;;;;1017070;29;1058;-19
2021/11/06 00:50:48;;;;;;;;;;;;;;;;;;1020746;29;1527;-19
2021/11/06 00:51:19;;;;;;;;;;;;;;;;;;1021022;29;1131;-19
2021/11/06 00:51:50;;;;;;;;;;;;;;;;;;1020495;29;1405;-19
2021/11/06 00:52:20;;;;;;;;;;;;;;;;;;1013034;29;1321;-20
2021/11/06 00:52:53;;;;;;;;;;;;;;;;;;1013297;29;1122;-21
2021/11/06 00:53:23;;;;;;;;;;;;;;;;;;1012244;29;1588;-21
2021/11/06 00:53:53;;;;;;;;;;;;;;;;;;1012599;29;994;-22
2021/11/06 00:54:24;;;;;;;;;;;;;;;;;;1012558;29;1206;-21
2021/11/06 00:54:54;;;;;;;;;;;;;;;;;;1012923;29;1127;-21
2021/11/06 00:55:25;;;;;;;;;;;;;;;;;;1013940;29;951;-20
2021/11/06 00:55:55;;;;;;;;;;;;;;;;;;1020781;29;1470;-21
2021/11/06 00:56:26;;;;;;;;;;;;;;;;;;1021027;29;1085;-21
2021/11/06 00:56:56;;;;;;;;;;;;;;;;;;1020965;29;1919;-21
2021/11/06 00:57:27;;;;;;;;;;;;;;;;;;1021049;29;1232;-19
2021/11/06 00:57:58;;;;;;;;;;;;;;;;;;1013921;29;944;-19
2021/11/06 00:58:28;;;;;;;;;;;;;;;;;;1013460;29;1504;-19
2021/11/06 00:58:58;;;;;;;;;;;;;;;;;;1013493;29;1039;-19
2021/11/06 00:59:29;;;;;;;;;;;;;;;;;;1014178;29;955;-19
2021/11/06 00:59:59;;;;;;;;;;;;;;;;;;1013192;29;1188;-19
2021/11/06 01:00:29;;;;;;;;;;;;;;;;;;1014166;29;1251;-21
2021/11/06 01:01:00;;;;;;;;;;;;;;;;;;1013487;29;1612;-20
2021/11/06 01:01:31;;;;;;;;;;;;;;;;;;1016817;29;1223;-20
2021/11/06 01:02:02;;;;;;;;;;;;;;;;;;1017124;29;1030;-20
2021/11/06 01:02:32;;;;;;;;;;;;;;;;;;1017014;29;1109;-21
2021/11/06 01:03:03;;;;;;;;;;;;;;;;;;1013150;29;944;-20
2021/11/06 01:03:34;;;;;;;;;;;;;;;;;;1009136;29;1221;-20
2021/11/06 01:04:05;;;;;;;;;;;;;;;;;;1012845;29;946;-20
2021/11/06 01:04:37;;;;;;;;;;;;;;;;;;1005487;29;1223;-21
2021/11/06 01:05:09;;;;;;;;;;;;;;;;;;1001210;29;1644;-21
2021/11/06 01:05:39;;;;;;;;;;;;;;;;;;1001489;29;1244;-20
2021/11/06 01:06:09;;;;;;;;;;;;;;;;;;1002440;29;967;-20
2021/11/06 01:06:40;;;;;;;;;;;;;;;;;;1008837;29;1497;-21
2021/11/06 01:07:10;;;;;;;;;;;;;;;;;;1013958;29;1268;-20
2021/11/06 01:07:41;;;;;;;;;;;;;;;;;;1013554;29;1347;-21
2021/11/06 01:08:11;;;;;;;;;;;;;;;;;;1013696;29;1020;-20
2021/11/06 01:08:43;;;;;;;;;;;;;;;;;;1013319;29;1060;-20
2021/11/06 01:09:13;;;;;;;;;;;;;;;;;;1012647;29;1689;-21
2021/11/06 01:09:44;;;;;;;;;;;;;;;;;;1013148;29;1073;-20
2021/11/06 01:10:14;;;;;;;;;;;;;;;;;;1013093;29;1077;-20
2021/11/06 01:10:45;;;;;;;;;;;;;;;;;;1013946;29;894;-21
2021/11/06 01:11:16;;;;;;;;;;;;;;;;;;1021014;29;1110;-21
2021/11/06 01:11:46;;;;;;;;;;;;;;;;;;1021044;29;1024;-21
2021/11/06 01:12:17;;;;;;;;;;;;;;;;;;1013966;29;1116;-21
2021/11/06 01:12:49;;;;;;;;;;;;;;;;;;1012591;29;1332;-20
2021/11/06 01:13:20;;;;;;;;;;;;;;;;;;1005419;29;1008;-20
2021/11/06 01:13:50;;;;;;;;;;;;;;;;;;1005428;29;1115;-21
2021/11/06 01:14:20;;;;;;;;;;;;;;;;;;1005333;29;1522;-21
2021/11/06 01:14:51;;;;;;;;;;;;;;;;;;1010024;29;1062;-20
2021/11/06 01:15:21;;;;;;;;;;;;;;;;;;1010098;29;1054;-21
2021/11/06 01:15:58;;;;;;;;;;;;;;;;;;1016455;29;1566;-21
2021/11/06 01:16:29;;;;;;;;;;;;;;;;;;1017198;29;1902;-21
2021/11/06 01:16:59;;;;;;;;;;;;;;;;;;1016674;29;1269;-21
2021/11/06 01:17:30;;;;;;;;;;;;;;;;;;1015671;29;1075;-20
2021/11/06 01:18:00;;;;;;;;;;;;;;;;;;1009627;29;1257;-21
2021/11/06 01:18:30;;;;;;;;;;;;;;;;;;1010052;29;1039;-20
2021/11/06 01:19:01;;;;;;;;;;;;;;;;;;1013458;29;1228;-20
2021/11/06 01:19:31;;;;;;;;;;;;;;;;;;1013290;29;1460;-21
2021/11/06 01:20:06;;;;;;;;;;;;;;;;;;1013271;29;1107;-20
2021/11/06 01:20:36;;;;;;;;;;;;;;;;;;1012978;29;1205;-21
2021/11/06 01:21:06;;;;;;;;;;;;;;;;;;1009707;29;1331;-20
2021/11/06 01:21:37;;;;;;;;;;;;;;;;;;1009873;29;1068;-20
2021/11/06 01:22:08;;;;;;;;;;;;;;;;;;1005375;29;1138;-20
2021/11/06 01:22:38;;;;;;;;;;;;;;;;;;1008740;29;1400;-20
2021/11/06 01:23:09;;;;;;;;;;;;;;;;;;1012984;29;1470;-21
2021/11/06 01:23:40;;;;;;;;;;;;;;;;;;1012918;29;1268;-20
2021/11/06 01:24:10;;;;;;;;;;;;;;;;;;1012893;29;1226;-19
2021/11/06 01:24:40;;;;;;;;;;;;;;;;;;1009290;29;923;-20
2021/11/06 01:25:11;;;;;;;;;;;;;;;;;;1009336;29;1466;-20
2021/11/06 01:25:41;;;;;;;;;;;;;;;;;;1009964;29;990;-20
2021/11/06 01:26:18;;;;;;;;;;;;;;;;;;1009714;29;1351;-20
2021/11/06 01:26:49;;;;;;;;;;;;;;;;;;1009092;29;1080;-20
2021/11/06 01:27:20;;;;;;;;;;;;;;;;;;1012896;29;1045;-21
2021/11/06 01:27:50;;;;;;;;;;;;;;;;;;1012728;29;1383;-20
2021/11/06 01:28:24;;;;;;;;;;;;;;;;;;1012894;29;1347;-21
2021/11/06 01:28:54;;;;;;;;;;;;;;;;;;1008930;29;1109;-19
2021/11/06 01:29:24;;;;;;;;;;;;;;;;;;1005514;29;1125;-21
2021/11/06 01:29:55;;;;;;;;;;;;;;;;;;1005630;29;1043;-21
2021/11/06 01:30:26;;;;;;;;;;;;;;;;;;1012643;29;1271;-21
2021/11/06 01:30:57;;;;;;;;;;;;;;;;;;1008974;29;1043;-21
2021/11/06 01:31:28;;;;;;;;;;;;;;;;;;1005139;29;1079;-21
2021/11/06 01:31:59;;;;;;;;;;;;;;;;;;1004569;29;1768;-21
2021/11/06 01:32:29;;;;;;;;;;;;;;;;;;1001540;29;1121;-20
2021/11/06 01:33:00;;;;;;;;;;;;;;;;;;1004948;29;1371;-20
2021/11/06 01:33:30;;;;;;;;;;;;;;;;;;1009190;29;1173;-21
2021/11/06 01:34:00;;;;;;;;;;;;;;;;;;1009380;29;962;-21
2021/11/06 01:34:31;;;;;;;;;;;;;;;;;;1009530;29;1217;-19
2021/11/06 01:35:01;;;;;;;;;;;;;;;;;;1009898;29;995;-20
2021/11/06 01:35:32;;;;;;;;;;;;;;;;;;1012536;29;1291;-21
2021/11/06 01:36:03;;;;;;;;;;;;;;;;;;1013054;29;1074;-20
2021/11/06 01:36:33;;;;;;;;;;;;;;;;;;1012761;29;1899;-19
2021/11/06 01:37:04;;;;;;;;;;;;;;;;;;1012580;29;1413;-20
2021/11/06 01:37:34;;;;;;;;;;;;;;;;;;1005102;29;1195;-21
2021/11/06 01:38:05;;;;;;;;;;;;;;;;;;1005337;29;924;-20
2021/11/06 01:38:35;;;;;;;;;;;;;;;;;;1005274;29;1267;-20
2021/11/06 01:39:06;;;;;;;;;;;;;;;;;;1012691;29;1210;-20
2021/11/06 01:39:38;;;;;;;;;;;;;;;;;;1016613;29;1410;-20
2021/11/06 01:40:09;;;;;;;;;;;;;;;;;;1008896;29;1309;-21
2021/11/06 01:40:39;;;;;;;;;;;;;;;;;;1008584;29;1130;-21
2021/11/06 01:41:10;;;;;;;;;;;;;;;;;;1001442;29;1199;-20
2021/11/06 01:41:41;;;;;;;;;;;;;;;;;;1001830;29;928;-21
2021/11/06 01:42:11;;;;;;;;;;;;;;;;;;1009790;29;1618;-20
2021/11/06 01:42:42;;;;;;;;;;;;;;;;;;1009565;29;1129;-20
2021/11/06 01:43:13;;;;;;;;;;;;;;;;;;1009641;29;1111;-20
2021/11/06 01:43:44;;;;;;;;;;;;;;;;;;1005178;29;1139;-21
2021/11/06 01:44:14;;;;;;;;;;;;;;;;;;1005582;29;1109;-21
2021/11/06 01:44:46;;;;;;;;;;;;;;;;;;1005407;29;960;-21
2021/11/06 01:45:17;;;;;;;;;;;;;;;;;;1004969;29;1476;-21
2021/11/06 01:46:01;;;;;;;;;;;;;;;;;;1012922;29;1239;-21
2021/11/06 01:46:31;;;;;;;;;;;;;;;;;;1013086;29;1078;-20
2021/11/06 01:47:02;;;;;;;;;;;;;;;;;;1016732;29;1062;-20
2021/11/06 01:47:32;;;;;;;;;;;;;;;;;;1014926;29;1355;-21
2021/11/06 01:48:03;;;;;;;;;;;;;;;;;;1020630;29;1187;-20
2021/11/06 01:48:34;;;;;;;;;;;;;;;;;;1020893;29;1213;-20
2021/11/06 01:49:04;;;;;;;;;;;;;;;;;;1020120;29;1554;-20
2021/11/06 01:49:35;;;;;;;;;;;;;;;;;;1020657;29;1217;-20
2021/11/06 01:50:07;;;;;;;;;;;;;;;;;;1009121;29;962;-19
2021/11/06 01:50:37;;;;;;;;;;;;;;;;;;1000710;29;1349;-20
2021/11/06 01:51:08;;;;;;;;;;;;;;;;;;997914;29;1287;-20
2021/11/06 01:51:38;;;;;;;;;;;;;;;;;;996830;29;1389;-20
2021/11/06 01:52:09;;;;;;;;;;;;;;;;;;1005193;29;1185;-21
2021/11/06 01:52:40;;;;;;;;;;;;;;;;;;1008991;29;1322;-20
2021/11/06 01:53:10;;;;;;;;;;;;;;;;;;1016699;29;1270;-20
2021/11/06 01:53:41;;;;;;;;;;;;;;;;;;1016908;29;1088;-20
2021/11/06 01:54:12;;;;;;;;;;;;;;;;;;1016851;29;1858;-20
2021/11/06 01:54:42;;;;;;;;;;;;;;;;;;1020577;29;1165;-21
2021/11/06 01:55:13;;;;;;;;;;;;;;;;;;1013179;29;1063;-21
2021/11/06 01:55:44;;;;;;;;;;;;;;;;;;1020309;29;1540;-20
2021/11/06 01:56:15;;;;;;;;;;;;;;;;;;1020474;29;1387;-21
2021/11/06 01:56:46;;;;;;;;;;;;;;;;;;1016839;29;1910;-20
2021/11/06 01:57:17;;;;;;;;;;;;;;;;;;1016296;29;1233;-21
2021/11/06 01:57:48;;;;;;;;;;;;;;;;;;1012884;29;980;-21
2021/11/06 01:58:22;;;;;;;;;;;;;;;;;;1012762;29;1065;-21
2021/11/06 01:58:53;;;;;;;;;;;;;;;;;;1012995;29;1192;-21
2021/11/06 01:59:24;;;;;;;;;;;;;;;;;;1008388;29;1052;-20
2021/11/06 01:59:54;;;;;;;;;;;;;;;;;;1008420;29;1681;-19
2021/11/06 02:00:27;;;;;;;;;;;;;;;;;;1005349;29;1004;-21
2021/11/06 02:00:58;;;;;;;;;;;;;;;;;;1008905;29;1233;-20
2021/11/06 02:01:29;;;;;;;;;;;;;;;;;;1015746;29;1202;-20
2021/11/06 02:02:00;;;;;;;;;;;;;;;;;;1008819;29;1180;-20
2021/11/06 02:02:31;;;;;;;;;;;;;;;;;;1008246;29;1339;-20
2021/11/06 02:03:01;;;;;;;;;;;;;;;;;;1001288;29;1104;-20
2021/11/06 02:03:33;;;;;;;;;;;;;;;;;;997289;29;1427;-20
2021/11/06 02:04:04;;;;;;;;;;;;;;;;;;1005265;29;1286;-20
2021/11/06 02:04:34;;;;;;;;;;;;;;;;;;1010045;29;979;-21
2021/11/06 02:05:05;;;;;;;;;;;;;;;;;;1009202;29;1431;-19
2021/11/06 02:05:35;;;;;;;;;;;;;;;;;;1009490;29;1199;-20
2021/11/06 02:06:06;;;;;;;;;;;;;;;;;;1009697;29;1472;-20
2021/11/06 02:06:36;;;;;;;;;;;;;;;;;;1009513;29;1242;-21
2021/11/06 02:07:07;;;;;;;;;;;;;;;;;;1016759;29;1211;-21
2021/11/06 02:07:38;;;;;;;;;;;;;;;;;;1020282;29;1264;-21
2021/11/06 02:08:08;;;;;;;;;;;;;;;;;;1020648;29;1276;-21
2021/11/06 02:08:38;;;;;;;;;;;;;;;;;;1020703;29;1022;-20
2021/11/06 02:09:10;;;;;;;;;;;;;;;;;;1012813;29;1742;-20
2021/11/06 02:09:40;;;;;;;;;;;;;;;;;;1009865;29;876;-20
2021/11/06 02:10:11;;;;;;;;;;;;;;;;;;1009817;29;983;-20
2021/11/06 02:10:42;;;;;;;;;;;;;;;;;;1009810;29;859;-21
2021/11/06 02:11:13;;;;;;;;;;;;;;;;;;1009734;29;1018;-20
2021/11/06 02:11:44;;;;;;;;;;;;;;;;;;1008981;29;1586;-21
2021/11/06 02:12:14;;;;;;;;;;;;;;;;;;1009156;29;1174;-21
2021/11/06 02:12:46;;;;;;;;;;;;;;;;;;1002705;29;1267;-21
2021/11/06 02:13:16;;;;;;;;;;;;;;;;;;1001182;29;1127;-21
2021/11/06 02:13:47;;;;;;;;;;;;;;;;;;1001460;29;974;-20
2021/11/06 02:14:17;;;;;;;;;;;;;;;;;;1001577;29;1098;-21
2021/11/06 02:14:47;;;;;;;;;;;;;;;;;;1009018;29;1020;-21
2021/11/06 02:15:19;;;;;;;;;;;;;;;;;;1012744;29;1403;-19
2021/11/06 02:15:49;;;;;;;;;;;;;;;;;;1012584;29;1074;-21
2021/11/06 02:16:19;;;;;;;;;;;;;;;;;;1013161;29;1203;-21
2021/11/06 02:16:52;;;;;;;;;;;;;;;;;;1012608;29;1990;-20
2021/11/06 02:17:22;;;;;;;;;;;;;;;;;;1013674;29;1155;-19
2021/11/06 02:17:52;;;;;;;;;;;;;;;;;;1013677;29;944;-21
2021/11/06 02:18:23;;;;;;;;;;;;;;;;;;1013709;29;993;-20
2021/11/06 02:18:53;;;;;;;;;;;;;;;;;;1013569;29;896;-20
2021/11/06 02:19:28;;;;;;;;;;;;;;;;;;1013794;29;975;-20
2021/11/06 02:19:58;;;;;;;;;;;;;;;;;;1013629;29;1108;-20
2021/11/06 02:20:29;;;;;;;;;;;;;;;;;;1013821;29;927;-20
2021/11/06 02:21:04;;;;;;;;;;;;;;;;;;1013563;29;1050;-20
2021/11/06 02:21:36;;;;;;;;;;;;;;;;;;1013529;29;1383;-20
2021/11/06 02:22:06;;;;;;;;;;;;;;;;;;1013710;29;926;-20
2021/11/06 02:22:37;;;;;;;;;;;;;;;;;;1013662;29;1041;-20
2021/11/06 02:23:07;;;;;;;;;;;;;;;;;;1013591;29;943;-21
2021/11/06 02:23:39;;;;;;;;;;;;;;;;;;1013390;29;1456;-21
2021/11/06 02:24:09;;;;;;;;;;;;;;;;;;1020644;29;1290;-20
2021/11/06 02:24:40;;;;;;;;;;;;;;;;;;1020961;29;1138;-20
2021/11/06 02:25:12;;;;;;;;;;;;;;;;;;1012683;29;1042;-20
2021/11/06 02:25:42;;;;;;;;;;;;;;;;;;1012835;29;882;-21
2021/11/06 02:26:13;;;;;;;;;;;;;;;;;;1008975;29;1176;-20
2021/11/06 02:26:43;;;;;;;;;;;;;;;;;;1009120;29;1134;-21
2021/11/06 02:27:14;;;;;;;;;;;;;;;;;;1020712;29;1058;-21
2021/11/06 02:27:45;;;;;;;;;;;;;;;;;;1020548;29;1579;-20
2021/11/06 02:28:15;;;;;;;;;;;;;;;;;;1020734;29;1193;-20
2021/11/06 02:28:54;;;;;;;;;;;;;;;;;;1020731;29;1386;-21
2021/11/06 02:29:25;;;;;;;;;;;;;;;;;;1008940;29;1026;-21
2021/11/06 02:29:56;;;;;;;;;;;;;;;;;;1004777;29;1593;-19
2021/11/06 02:30:27;;;;;;;;;;;;;;;;;;1004986;29;1330;-21
2021/11/06 02:30:57;;;;;;;;;;;;;;;;;;1005141;29;1119;-21
2021/11/06 02:31:28;;;;;;;;;;;;;;;;;;1008919;29;1133;-21
2021/11/06 02:31:58;;;;;;;;;;;;;;;;;;1013655;29;1081;-20
2021/11/06 02:32:28;;;;;;;;;;;;;;;;;;1013656;29;1009;-20
2021/11/06 02:33:00;;;;;;;;;;;;;;;;;;1008461;29;1460;-21
2021/11/06 02:33:30;;;;;;;;;;;;;;;;;;1009073;29;1157;-20
2021/11/06 02:34:01;;;;;;;;;;;;;;;;;;1008627;29;1593;-19
2021/11/06 02:34:32;;;;;;;;;;;;;;;;;;1012846;29;1389;-20
2021/11/06 02:35:04;;;;;;;;;;;;;;;;;;1012769;29;1096;-20
2021/11/06 02:35:34;;;;;;;;;;;;;;;;;;1004567;29;1370;-21
2021/11/06 02:36:05;;;;;;;;;;;;;;;;;;1004741;29;1274;-22
2021/11/06 02:36:36;;;;;;;;;;;;;;;;;;1001112;29;1918;-20
2021/11/06 02:37:06;;;;;;;;;;;;;;;;;;1000998;29;1223;-21
2021/11/06 02:37:37;;;;;;;;;;;;;;;;;;1013744;29;1400;-20
2021/11/06 02:38:08;;;;;;;;;;;;;;;;;;1012891;29;1532;-21
2021/11/06 02:38:38;;;;;;;;;;;;;;;;;;1008988;29;1581;-20
2021/11/06 02:39:08;;;;;;;;;;;;;;;;;;1008908;29;1084;-21
2021/11/06 02:39:39;;;;;;;;;;;;;;;;;;1005222;29;1131;-20
2021/11/06 02:40:11;;;;;;;;;;;;;;;;;;1001157;29;1063;-20
2021/11/06 02:40:41;;;;;;;;;;;;;;;;;;1004854;29;1391;-21
2021/11/06 02:41:12;;;;;;;;;;;;;;;;;;1005030;29;1061;-20
2021/11/06 02:41:42;;;;;;;;;;;;;;;;;;1009367;29;1006;-20
2021/11/06 02:42:14;;;;;;;;;;;;;;;;;;1012569;29;1463;-20
2021/11/06 02:42:44;;;;;;;;;;;;;;;;;;1013671;29;1084;-21
2021/11/06 02:43:14;;;;;;;;;;;;;;;;;;1012907;29;1260;-20
2021/11/06 02:43:45;;;;;;;;;;;;;;;;;;1013770;29;1151;-21
2021/11/06 02:44:16;;;;;;;;;;;;;;;;;;1012570;29;1185;-20
2021/11/06 02:44:47;;;;;;;;;;;;;;;;;;1016550;29;1023;-20
2021/11/06 02:45:20;;;;;;;;;;;;;;;;;;1016687;29;998;-21
2021/11/06 02:45:50;;;;;;;;;;;;;;;;;;1016576;29;1453;-19
2021/11/06 02:46:20;;;;;;;;;;;;;;;;;;1016250;29;1157;-21
2021/11/06 02:46:51;;;;;;;;;;;;;;;;;;1013611;29;1034;-20
2021/11/06 02:47:21;;;;;;;;;;;;;;;;;;1013063;29;1250;-21
2021/11/06 02:47:51;;;;;;;;;;;;;;;;;;1013571;29;974;-21
2021/11/06 02:48:22;;;;;;;;;;;;;;;;;;1013562;29;883;-20
2021/11/06 02:48:52;;;;;;;;;;;;;;;;;;1020038;29;1348;-20
2021/11/06 02:49:23;;;;;;;;;;;;;;;;;;1020797;29;1135;-21
2021/11/06 02:49:53;;;;;;;;;;;;;;;;;;1016641;29;1102;-20
2021/11/06 02:50:24;;;;;;;;;;;;;;;;;;1016884;29;1259;-20
2021/11/06 02:50:55;;;;;;;;;;;;;;;;;;1008761;29;1092;-21
2021/11/06 02:51:26;;;;;;;;;;;;;;;;;;1008534;29;1287;-21
2021/11/06 02:51:56;;;;;;;;;;;;;;;;;;1001261;29;1042;-20
2021/11/06 02:52:27;;;;;;;;;;;;;;;;;;1000991;29;1398;-20
2021/11/06 02:52:57;;;;;;;;;;;;;;;;;;1005311;29;903;-20
2021/11/06 02:53:28;;;;;;;;;;;;;;;;;;1008865;29;900;-21
2021/11/06 02:53:58;;;;;;;;;;;;;;;;;;1016686;29;1435;-21
2021/11/06 02:54:29;;;;;;;;;;;;;;;;;;1016750;29;1283;-21
2021/11/06 02:54:59;;;;;;;;;;;;;;;;;;1016854;29;1110;-20
2021/11/06 02:55:30;;;;;;;;;;;;;;;;;;1009170;29;1340;-21
2021/11/06 02:56:01;;;;;;;;;;;;;;;;;;1005129;29;1085;-21
2021/11/06 02:56:31;;;;;;;;;;;;;;;;;;1005076;29;1519;-20
2021/11/06 02:57:02;;;;;;;;;;;;;;;;;;1004110;29;1436;-20
2021/11/06 02:57:33;;;;;;;;;;;;;;;;;;1001225;29;973;-20
2021/11/06 02:58:03;;;;;;;;;;;;;;;;;;1005169;29;1189;-19
2021/11/06 02:58:34;;;;;;;;;;;;;;;;;;1004887;29;1235;-20
2021/11/06 02:59:05;;;;;;;;;;;;;;;;;;1004950;29;1104;-21
2021/11/06 02:59:36;;;;;;;;;;;;;;;;;;1004762;29;1548;-20
2021/11/06 03:00:09;;;;;;;;;;;;;;;;;;1004947;29;1242;-21
2021/11/06 03:00:40;;;;;;;;;;;;;;;;;;1005071;29;974;-21
2021/11/06 03:01:10;;;;;;;;;;;;;;;;;;1005485;29;1533;-20
2021/11/06 03:01:40;;;;;;;;;;;;;;;;;;1013432;29;1010;-20
2021/11/06 03:02:11;;;;;;;;;;;;;;;;;;1013516;29;918;-20
2021/11/06 03:02:42;;;;;;;;;;;;;;;;;;1009011;29;1109;-20
2021/11/06 03:03:12;;;;;;;;;;;;;;;;;;1008866;29;894;-21
2021/11/06 03:03:42;;;;;;;;;;;;;;;;;;1008774;29;939;-21
2021/11/06 03:04:13;;;;;;;;;;;;;;;;;;1009096;29;1195;-20
2021/11/06 03:04:44;;;;;;;;;;;;;;;;;;1012820;29;981;-21
2021/11/06 03:05:15;;;;;;;;;;;;;;;;;;1008713;29;1115;-21
2021/11/06 03:05:45;;;;;;;;;;;;;;;;;;1008827;29;1074;-20
2021/11/06 03:06:16;;;;;;;;;;;;;;;;;;1008887;29;1128;-20
2021/11/06 03:06:46;;;;;;;;;;;;;;;;;;1008889;29;1161;-21
2021/11/06 03:07:17;;;;;;;;;;;;;;;;;;1013478;29;919;-20
2021/11/06 03:07:48;;;;;;;;;;;;;;;;;;1008552;29;1139;-21
2021/11/06 03:08:18;;;;;;;;;;;;;;;;;;1008992;29;1060;-20
2021/11/06 03:08:48;;;;;;;;;;;;;;;;;;1008829;29;999;-21
2021/11/06 03:09:19;;;;;;;;;;;;;;;;;;1012777;29;1031;-20
2021/11/06 03:09:50;;;;;;;;;;;;;;;;;;1020408;29;1067;-20
2021/11/06 03:10:20;;;;;;;;;;;;;;;;;;1020713;29;1064;-21
2021/11/06 03:10:51;;;;;;;;;;;;;;;;;;1020553;29;908;-20
2021/11/06 03:11:21;;;;;;;;;;;;;;;;;;1012836;29;955;-21
2021/11/06 03:11:52;;;;;;;;;;;;;;;;;;1013548;29;1133;-20
2021/11/06 03:12:23;;;;;;;;;;;;;;;;;;1013593;29;943;-21
2021/11/06 03:12:54;;;;;;;;;;;;;;;;;;1013245;29;1610;-21
2021/11/06 03:13:25;;;;;;;;;;;;;;;;;;1013424;29;871;-21
2021/11/06 03:13:57;;;;;;;;;;;;;;;;;;1012371;29;1545;-20
2021/11/06 03:14:27;;;;;;;;;;;;;;;;;;1012798;29;1033;-20
2021/11/06 03:14:58;;;;;;;;;;;;;;;;;;1012769;29;1077;-20
2021/11/06 03:15:28;;;;;;;;;;;;;;;;;;1012152;29;1663;-20
2021/11/06 03:15:59;;;;;;;;;;;;;;;;;;1013267;29;1147;-20
2021/11/06 03:16:30;;;;;;;;;;;;;;;;;;1013485;29;835;-20
2021/11/06 03:17:00;;;;;;;;;;;;;;;;;;1013087;29;1906;-20
2021/11/06 03:17:30;;;;;;;;;;;;;;;;;;1013523;29;998;-21
2021/11/06 03:18:01;;;;;;;;;;;;;;;;;;1013926;29;1270;-20
2021/11/06 03:18:31;;;;;;;;;;;;;;;;;;1017330;29;1210;-21
2021/11/06 03:19:02;;;;;;;;;;;;;;;;;;1009818;29;1075;-20
2021/11/06 03:19:33;;;;;;;;;;;;;;;;;;1008889;29;1407;-21
2021/11/06 03:20:04;;;;;;;;;;;;;;;;;;1013315;29;1051;-20
2021/11/06 03:20:34;;;;;;;;;;;;;;;;;;1009497;29;1346;-20
2021/11/06 03:21:05;;;;;;;;;;;;;;;;;;1013498;29;1137;-21
2021/11/06 03:21:37;;;;;;;;;;;;;;;;;;1017406;29;1342;-19
2021/11/06 03:22:07;;;;;;;;;;;;;;;;;;1013254;29;1390;-21
2021/11/06 03:22:38;;;;;;;;;;;;;;;;;;1013589;29;1007;-21
2021/11/06 03:23:09;;;;;;;;;;;;;;;;;;1017603;29;1074;-21
2021/11/06 03:23:39;;;;;;;;;;;;;;;;;;1021471;29;1621;-21
2021/11/06 03:24:09;;;;;;;;;;;;;;;;;;1021173;29;1225;-20
2021/11/06 03:24:40;;;;;;;;;;;;;;;;;;1021519;29;1029;-21
2021/11/06 03:25:12;;;;;;;;;;;;;;;;;;1009825;29;1244;-20
2021/11/06 03:25:42;;;;;;;;;;;;;;;;;;1021352;29;1083;-20
2021/11/06 03:26:13;;;;;;;;;;;;;;;;;;1012972;29;1334;-20
2021/11/06 03:26:43;;;;;;;;;;;;;;;;;;1013590;29;985;-20
2021/11/06 03:27:14;;;;;;;;;;;;;;;;;;1013531;29;1115;-21
2021/11/06 03:27:47;;;;;;;;;;;;;;;;;;1009671;29;1018;-21
2021/11/06 03:28:17;;;;;;;;;;;;;;;;;;1017302;29;970;-20
2021/11/06 03:28:47;;;;;;;;;;;;;;;;;;1016617;29;1600;-21
2021/11/06 03:29:18;;;;;;;;;;;;;;;;;;1017263;29;1137;-21
2021/11/06 03:29:49;;;;;;;;;;;;;;;;;;1021036;29;1299;-20
2021/11/06 03:30:19;;;;;;;;;;;;;;;;;;1012814;29;1382;-20
2021/11/06 03:30:50;;;;;;;;;;;;;;;;;;1013392;29;1426;-21
2021/11/06 03:31:20;;;;;;;;;;;;;;;;;;1013171;29;1681;-20
2021/11/06 03:31:51;;;;;;;;;;;;;;;;;;1009538;29;1067;-21
2021/11/06 03:32:22;;;;;;;;;;;;;;;;;;1014201;29;879;-20
2021/11/06 03:32:53;;;;;;;;;;;;;;;;;;1020851;29;1666;-21
2021/11/06 03:33:23;;;;;;;;;;;;;;;;;;1021431;29;986;-20
2021/11/06 03:33:54;;;;;;;;;;;;;;;;;;1020894;29;1391;-20
2021/11/06 03:34:25;;;;;;;;;;;;;;;;;;1020869;29;1367;-21